Home   Weather   USA   Austin   Past weeks
Flag for USA

Past Weather in Austin, Texas, USA — November 2018

Currently: 71 °F. Mild. (Weather station: Camp Mabry / Austin City, USA). See more current weather

November 2018 Weather in Austin — Graph

°F

High & Low Weather Summary for November 2018

 TemperatureHumidityPressure
High85 °F (Nov 7, 12:51 pm)97% (Nov 1, 12:51 am)30.59 "Hg (Nov 1, 12:51 am)
Low32 °F (Nov 14, 1:51 am)21% (Nov 26, 2:51 pm)29.59 "Hg (Nov 30, 3:51 pm)
Average58 °F69%30.07 "Hg
* Reported Nov 1 12:51 am — Nov 30 11:51 pm, Austin. Weather by CustomWeather, © 2023

Note: Actual official high and low records may vary slightly from our data, if they occured in-between our weather recording intervals... More about our weather records

Austin Weather History for November 1, 2018

Scroll right to see more
 ConditionsComfort  
Time TempWeatherWind HumidityBarometerVisibility
12:51 am
Thu, Nov 1
65 °FMild.N/A97%29.87 "Hg32 mi
1:51 am63 °FPassing clouds.6 mph93%29.95 "Hg10 mi
2:37 am55 °FPassing clouds.5 mph80%29.88 "Hg10 mi
3:51 am55 °FOvercast.5 mph77%29.89 "Hg10 mi
4:42 am54 °FPartly cloudy.8 mph74%29.90 "Hg10 mi
5:51 am53 °FClear.9 mph74%29.92 "Hg10 mi
6:51 am53 °FClear.6 mph74%29.93 "Hg10 mi
7:51 am52 °FSunny.7 mph75%29.95 "Hg10 mi
8:51 am53 °FSunny.9 mph64%29.97 "Hg10 mi
9:51 am57 °FSunny.9 mph55%29.97 "Hg10 mi
10:51 am61 °FSunny.6 mph48%29.96 "Hg10 mi
11:51 am64 °FSunny.8 mph38%29.98 "Hg10 mi
12:51 pm66 °FSunny.7 mph33%29.96 "Hg10 mi
1:51 pm67 °FSunny.7 mph33%29.94 "Hg10 mi
2:51 pm69 °FSunny.6 mph32%29.92 "Hg10 mi
5:51 pm65 °FSunny.6 mph34%29.95 "Hg10 mi
6:51 pm62 °FClear.3 mph41%29.98 "Hg10 mi
7:51 pm59 °FClear.No wind48%30.02 "Hg10 mi
8:51 pm55 °FClear.3 mph59%30.04 "Hg10 mi
9:51 pm54 °FClear.No wind64%30.06 "Hg10 mi
10:51 pm51 °FClear.No wind74%30.07 "Hg10 mi
11:51 pm51 °FClear.No wind74%30.08 "Hg10 mi
Weather by CustomWeather, © 2023

See weather overview